EYKAEYPA

Guest
Details From EYKA - Kaunas Intl
To EYPA - PALANGA INTL
Flight Number -
Tags generated
Created
Modified
Stats Distance 118 nm / 219 km
Max Altitude 7,800 ft / 2,377 m
Waypoints 3
Social Downloads 2
Likes 0
Share VATSIM

Download

Looking for another format? Having issues loading an existing format? Contact us
Advertisement - Login to hide

Notes

Basic altitude profile: - Ascent Rate: 2500ft/min - Ascent Speed: 250kts - Cruise Altitude: 35000ft - Cruise Speed: 420kts - Descent Rate: 1500ft/min - Descent Speed: 250kts Options: - Use NATs: yes - Use PACOTS: yes - Use low airways: yes - Use high airways: no

Route

EYKA MANUX EYPA

ID Type Via Altitude Latitude Longitude Leg Dist Tot Dist Heading (true) Name
O EYKA APT - 0 ft / 0 m 54.96388˚ 24.08400˚ - 0 nm - Kaunas Intl
MANUX FIX - 7,800 ft / 2,377 m 55.67611˚ 22.03556˚ 82 nm 82 nm 302° / 301° -
O EYPA APT - 0 ft / 0 m 55.97312˚ 21.09381˚ 36 nm 118 nm 300° / 299° PALANGA INTL

Altitude Profile

Advertisement - Login to hide

EYKA

Details ICAO EYKA (KUN)
Name Kaunas Intl
Region Lithuania
Timezone Europe/Vilnius (UTC+2.0)
Stats Elevation 256 ft / 78 m (AMSL)
Location 54.963881° 24.084001°
Runways 1
Magnetic Variation 7.209° E

METAR

EYKA 140620Z 14011KT 110V170 CAVOK M01/M05 Q1000 R08/310095

Decode

TAF

Not found

Departure Runways

ID Width Length Bearing (true) Bearing (mag) Surface Threshold Offset Overrun Length
08 148 ft / 45 m 10,309 ft / 3,142 m 85.05° 77.84° Asphalt 1,116 ft / 340 m 240 ft / 73 m
26 148 ft / 45 m 10,309 ft / 3,142 m 265.09° 257.88° Asphalt 789 ft / 240 m 240 ft / 73 m

EYPA

Details ICAO EYPA (PLQ)
Name PALANGA INTL
Region Lithuania
Timezone Europe/Vilnius (UTC+2.0)
Stats Elevation 33 ft / 10 m (AMSL)
Location 55.973115° 21.093811°
Runways 1
Magnetic Variation 6.525° E

METAR

EYPA 140620Z 15015KT CAVOK 00/M04 Q0993 R19/0///95

Decode

TAF

TAF EYPA 140515Z 1406/1506 16016G30KT 9000 BKN020 TEMPO 1406/1409 4000 SNRA BKN010 BECMG 1409/1410 5000 RA BR BKN005 OVC010 TEMPO 1411/1416 1500 SNRA FZRA TEMPO 1416/1421 2000 RASN BKN003

Decode

Destination Runways

ID Width Length Bearing (true) Bearing (mag) Surface Threshold Offset Overrun Length
01 131 ft / 40 m 6,473 ft / 1,973 m 12.70° 6.17° Asphalt 0 ft / 0 m 0 ft / 0 m
19 131 ft / 40 m 6,473 ft / 1,973 m 192.71° 186.18° Asphalt 0 ft / 0 m 0 ft / 0 m

Approach Navaids

Runway Type Ident Frequency Range Bearing (true) Bearing (mag) Slope Elevation
19 Localiser IAN 110.10 MHz 18 nm / 33 km 192.71° 186.18° - 33 ft / 10 m (AMSL)
19 Glidescope IAN 110.10 MHz 10 nm / 19 km 192.71° 186.18° 3.00° 33 ft / 10 m (AMSL)
19 DME IAN 110.10 MHz 18 nm / 33 km - - - 39 ft / 12 m (AMSL)

Popular Alternatives